Terminal Aerodrome Forecast
Issued by NWS

Home | Current Version | Previous Version | Text Only | Print | Product List | Glossary On
Versions: 1 2 3 4 5 6 7 8 9 10 11 12 13 14 15 16 17 18 19 20 21 22 23 24 25 26 27 28 29 30 31 32
882
FTUS46 KPQR 252341
TAFONP
TAF
KONP 252341Z 2600/2624 25005KT P6SM VCSH SCT040 BKN200
     FM260200 VRB05KT P6SM SCT080 BKN200
     FM261300 13005KT P6SM -RA BKN040 OVC080
     FM261600 14007KT 6SM -RA BR BKN025 OVC040
     FM261900 18008KT 5SM -RA BR BKN015 OVC025=

USA.gov is the U.S. government's official web portal to all federal, state and local government web resources and services.